Terminal Aerodrome Forecast
Issued by NWS Twin Cities, MN

Home | Current Version | Previous Version | Graphics & Text | Print | Product List | Glossary On
Versions: 1 2 3 4 5 6 7 8 9 10 11 12 13 14 15 16 17 18 19 20 21 22 23 24 25 26
000
FTUS43 KMPX 100500
TAFMSP
TAF
KMSP 100520Z 1006/1112 15004KT P6SM SKC
     FM101600 17008KT P6SM FEW040 SCT120
     FM102000 17012KT P6SM SCT045 BKN100
     FM110300 15009KT P6SM VCSH BKN050 OVC080 PROB30 1109/1112 5SM
      TSRA OVC035CB=

USA.gov is the U.S. government's official web portal to all federal, state and local government web resources and services.